sensor_id;sensor_type;location;lat;lon;timestamp;pressure;altitude;pressure_sealevel;temperature;humidity
55315;BME280;41619;42.816;23.226;2023-02-21T00:02:13;95954.88;;;2.63;60.36
55315;BME280;41619;42.816;23.226;2023-02-21T00:04:57;95954.38;;;2.61;60.45
55315;BME280;41619;42.816;23.226;2023-02-21T00:07:41;95953.78;;;2.64;60.51
55315;BME280;41619;42.816;23.226;2023-02-21T00:10:25;95959.38;;;2.68;60.36
55315;BME280;41619;42.816;23.226;2023-02-21T00:13:09;95954.34;;;2.75;60.29
55315;BME280;41619;42.816;23.226;2023-02-21T00:15:54;95952.34;;;2.81;60.30
55315;BME280;41619;42.816;23.226;2023-02-21T00:18:37;95948.44;;;2.87;60.00
55315;BME280;41619;42.816;23.226;2023-02-21T00:21:22;95945.59;;;2.92;60.13
55315;BME280;41619;42.816;23.226;2023-02-21T00:24:06;95937.69;;;2.95;60.34
55315;BME280;41619;42.816;23.226;2023-02-21T00:26:50;95945.22;;;2.98;60.06
55315;BME280;41619;42.816;23.226;2023-02-21T00:29:34;95949.69;;;3.03;60.13
55315;BME280;41619;42.816;23.226;2023-02-21T00:32:18;95944.47;;;3.07;60.32
55315;BME280;41619;42.816;23.226;2023-02-21T00:35:02;95942.44;;;3.12;59.84
55315;BME280;41619;42.816;23.226;2023-02-21T00:37:50;95952.06;;;3.18;60.19
55315;BME280;41619;42.816;23.226;2023-02-21T00:40:34;95942.41;;;3.26;59.91
55315;BME280;41619;42.816;23.226;2023-02-21T00:43:18;95939.25;;;3.32;60.14
55315;BME280;41619;42.816;23.226;2023-02-21T00:46:02;95940.44;;;3.40;59.64
55315;BME280;41619;42.816;23.226;2023-02-21T00:48:46;95930.78;;;3.48;59.74
55315;BME280;41619;42.816;23.226;2023-02-21T00:51:30;95926.25;;;3.57;59.83
55315;BME280;41619;42.816;23.226;2023-02-21T00:54:14;95918.47;;;3.64;59.54
55315;BME280;41619;42.816;23.226;2023-02-21T00:56:58;95908.00;;;3.71;59.71
55315;BME280;41619;42.816;23.226;2023-02-21T00:59:42;95903.25;;;3.77;59.48
55315;BME280;41619;42.816;23.226;2023-02-21T01:02:26;95889.91;;;3.80;59.55
55315;BME280;41619;42.816;23.226;2023-02-21T01:05:10;95887.03;;;3.85;59.65
55315;BME280;41619;42.816;23.226;2023-02-21T01:07:53;95874.47;;;3.89;59.09
55315;BME280;41619;42.816;23.226;2023-02-21T01:10:37;95867.97;;;3.90;59.25
55315;BME280;41619;42.816;23.226;2023-02-21T01:13:21;95873.69;;;3.89;59.55
55315;BME280;41619;42.816;23.226;2023-02-21T01:16:06;95869.06;;;3.89;59.61
55315;BME280;41619;42.816;23.226;2023-02-21T01:18:50;95871.75;;;3.89;59.57
55315;BME280;41619;42.816;23.226;2023-02-21T01:21:34;95871.75;;;3.89;59.54
55315;BME280;41619;42.816;23.226;2023-02-21T01:24:18;95865.06;;;3.87;59.74
55315;BME280;41619;42.816;23.226;2023-02-21T01:27:02;95856.78;;;3.83;59.72
55315;BME280;41619;42.816;23.226;2023-02-21T01:29:47;95854.69;;;3.80;59.63
55315;BME280;41619;42.816;23.226;2023-02-21T01:32:30;95851.66;;;3.73;59.59
55315;BME280;41619;42.816;23.226;2023-02-21T01:35:14;95854.00;;;3.66;60.06
55315;BME280;41619;42.816;23.226;2023-02-21T01:37:58;95849.34;;;3.58;59.75
55315;BME280;41619;42.816;23.226;2023-02-21T01:40:42;95848.50;;;3.49;59.97
55315;BME280;41619;42.816;23.226;2023-02-21T01:43:27;95847.50;;;3.45;59.95
55315;BME280;41619;42.816;23.226;2023-02-21T01:46:14;95834.94;;;3.40;60.06
55315;BME280;41619;42.816;23.226;2023-02-21T01:49:02;95830.63;;;3.39;60.50
55315;BME280;41619;42.816;23.226;2023-02-21T01:51:48;95830.78;;;3.43;60.49
55315;BME280;41619;42.816;23.226;2023-02-21T01:54:36;95828.44;;;3.50;59.98
55315;BME280;41619;42.816;23.226;2023-02-21T01:57:21;95824.03;;;3.54;59.89
55315;BME280;41619;42.816;23.226;2023-02-21T02:00:08;95827.38;;;3.59;60.15
55315;BME280;41619;42.816;23.226;2023-02-21T02:03:00;95819.28;;;3.68;59.77
55315;BME280;41619;42.816;23.226;2023-02-21T02:05:48;95818.84;;;3.75;59.55
55315;BME280;41619;42.816;23.226;2023-02-21T02:08:34;95804.06;;;3.81;59.48
55315;BME280;41619;42.816;23.226;2023-02-21T02:14:56;95808.72;;;3.98;59.17
55315;BME280;41619;42.816;23.226;2023-02-21T02:27:52;95811.41;;;3.89;59.00
55315;BME280;41619;42.816;23.226;2023-02-21T02:41:32;95792.84;;;3.65;59.80
55315;BME280;41619;42.816;23.226;2023-02-21T02:44:05;95802.41;;;3.62;60.28
55315;BME280;41619;42.816;23.226;2023-02-21T02:46:37;95807.63;;;3.59;59.88
55315;BME280;41619;42.816;23.226;2023-02-21T02:49:09;95802.84;;;3.56;60.40
55315;BME280;41619;42.816;23.226;2023-02-21T02:51:37;95805.06;;;3.54;60.40
55315;BME280;41619;42.816;23.226;2023-02-21T02:54:03;95799.94;;;3.52;60.16
55315;BME280;41619;42.816;23.226;2023-02-21T02:56:28;95794.84;;;3.51;60.20
55315;BME280;41619;42.816;23.226;2023-02-21T02:59:21;95790.22;;;3.51;60.26
55315;BME280;41619;42.816;23.226;2023-02-21T03:15:18;95777.50;;;3.52;60.30
55315;BME280;41619;42.816;23.226;2023-02-21T03:17:59;95774.00;;;3.51;60.31
55315;BME280;41619;42.816;23.226;2023-02-21T03:20:28;95778.94;;;3.49;60.25
55315;BME280;41619;42.816;23.226;2023-02-21T03:22:55;95780.03;;;3.48;60.13
55315;BME280;41619;42.816;23.226;2023-02-21T03:25:22;95784.16;;;3.46;60.48
55315;BME280;41619;42.816;23.226;2023-02-21T03:27:50;95778.91;;;3.41;60.07
55315;BME280;41619;42.816;23.226;2023-02-21T03:30:17;95784.94;;;3.38;60.22
55315;BME280;41619;42.816;23.226;2023-02-21T03:32:54;95782.34;;;3.32;60.28
55315;BME280;41619;42.816;23.226;2023-02-21T03:35:21;95784.41;;;3.27;60.44
55315;BME280;41619;42.816;23.226;2023-02-21T03:37:51;95788.19;;;3.17;60.30
55315;BME280;41619;42.816;23.226;2023-02-21T03:40:21;95795.59;;;3.12;60.83
55315;BME280;41619;42.816;23.226;2023-02-21T03:42:48;95796.53;;;3.07;60.92
55315;BME280;41619;42.816;23.226;2023-02-21T03:45:14;95795.25;;;3.04;60.88
55315;BME280;41619;42.816;23.226;2023-02-21T03:47:39;95804.78;;;3.02;61.04
55315;BME280;41619;42.816;23.226;2023-02-21T03:50:05;95801.91;;;2.98;60.81
55315;BME280;41619;42.816;23.226;2023-02-21T03:52:31;95802.31;;;2.92;61.19
55315;BME280;41619;42.816;23.226;2023-02-21T03:54:57;95804.03;;;2.88;61.15
55315;BME280;41619;42.816;23.226;2023-02-21T03:57:22;95801.47;;;2.83;60.88
55315;BME280;41619;42.816;23.226;2023-02-21T03:59:47;95812.38;;;2.78;61.68
55315;BME280;41619;42.816;23.226;2023-02-21T04:02:13;95810.59;;;2.73;61.14
55315;BME280;41619;42.816;23.226;2023-02-21T04:04:39;95799.63;;;2.69;61.09
55315;BME280;41619;42.816;23.226;2023-02-21T04:07:04;95799.44;;;2.66;61.07
55315;BME280;41619;42.816;23.226;2023-02-21T04:09:30;95801.16;;;2.62;61.25
55315;BME280;41619;42.816;23.226;2023-02-21T04:11:55;95801.75;;;2.59;61.75
55315;BME280;41619;42.816;23.226;2023-02-21T04:14:21;95805.44;;;2.63;61.84
55315;BME280;41619;42.816;23.226;2023-02-21T04:16:46;95811.72;;;2.72;61.71
55315;BME280;41619;42.816;23.226;2023-02-21T04:19:12;95804.97;;;2.83;61.63
55315;BME280;41619;42.816;23.226;2023-02-21T04:21:37;95813.44;;;2.90;61.66
55315;BME280;41619;42.816;23.226;2023-02-21T04:24:03;95811.91;;;2.98;61.06
55315;BME280;41619;42.816;23.226;2023-02-21T04:26:28;95823.09;;;3.05;61.33
55315;BME280;41619;42.816;23.226;2023-02-21T04:28:54;95824.72;;;3.15;61.14
55315;BME280;41619;42.816;23.226;2023-02-21T04:31:21;95820.97;;;3.24;61.08
55315;BME280;41619;42.816;23.226;2023-02-21T04:33:47;95825.63;;;3.32;60.45
55315;BME280;41619;42.816;23.226;2023-02-21T04:36:12;95828.41;;;3.41;60.32
55315;BME280;41619;42.816;23.226;2023-02-21T04:38:38;95826.84;;;3.49;60.43
55315;BME280;41619;42.816;23.226;2023-02-21T04:41:04;95824.50;;;3.56;60.58
55315;BME280;41619;42.816;23.226;2023-02-21T04:43:30;95828.66;;;3.62;60.11
55315;BME280;41619;42.816;23.226;2023-02-21T04:45:55;95826.91;;;3.66;60.03
55315;BME280;41619;42.816;23.226;2023-02-21T04:48:21;95820.88;;;3.69;60.10
55315;BME280;41619;42.816;23.226;2023-02-21T04:50:46;95813.56;;;3.70;59.98
55315;BME280;41619;42.816;23.226;2023-02-21T04:53:12;95807.50;;;3.64;59.97
55315;BME280;41619;42.816;23.226;2023-02-21T04:55:37;95806.34;;;3.56;60.23
55315;BME280;41619;42.816;23.226;2023-02-21T04:58:03;95806.94;;;3.45;60.13
55315;BME280;41619;42.816;23.226;2023-02-21T05:00:28;95802.59;;;3.35;60.08
55315;BME280;41619;42.816;23.226;2023-02-21T05:02:54;95811.44;;;3.27;60.05
55315;BME280;41619;42.816;23.226;2023-02-21T05:05:19;95809.69;;;3.22;59.98
55315;BME280;41619;42.816;23.226;2023-02-21T05:07:45;95807.41;;;3.16;60.61
55315;BME280;41619;42.816;23.226;2023-02-21T05:10:11;95811.97;;;3.07;60.93
55315;BME280;41619;42.816;23.226;2023-02-21T05:12:37;95799.00;;;2.95;60.67
55315;BME280;41619;42.816;23.226;2023-02-21T05:15:04;95800.84;;;2.86;60.78
55315;BME280;41619;42.816;23.226;2023-02-21T05:17:30;95805.69;;;2.75;61.46
55315;BME280;41619;42.816;23.226;2023-02-21T05:19:56;95805.16;;;2.64;61.46
55315;BME280;41619;42.816;23.226;2023-02-21T05:22:21;95806.97;;;2.55;60.84
55315;BME280;41619;42.816;23.226;2023-02-21T05:24:47;95803.41;;;2.46;61.58
55315;BME280;41619;42.816;23.226;2023-02-21T05:27:14;95799.31;;;2.35;61.45
55315;BME280;41619;42.816;23.226;2023-02-21T05:29:44;95799.75;;;2.28;61.52
55315;BME280;41619;42.816;23.226;2023-02-21T05:32:10;95805.28;;;2.23;61.96
55315;BME280;41619;42.816;23.226;2023-02-21T05:34:35;95804.56;;;2.18;61.66
55315;BME280;41619;42.816;23.226;2023-02-21T05:37:01;95804.38;;;2.14;61.76
55315;BME280;41619;42.816;23.226;2023-02-21T05:39:26;95807.06;;;2.14;61.87
55315;BME280;41619;42.816;23.226;2023-02-21T05:41:51;95813.47;;;2.18;62.13
55315;BME280;41619;42.816;23.226;2023-02-21T05:44:17;95818.25;;;2.21;62.46
55315;BME280;41619;42.816;23.226;2023-02-21T05:46:43;95818.16;;;2.26;62.13
55315;BME280;41619;42.816;23.226;2023-02-21T05:49:10;95817.75;;;2.33;61.83
55315;BME280;41619;42.816;23.226;2023-02-21T05:51:38;95823.41;;;2.45;62.11
55315;BME280;41619;42.816;23.226;2023-02-21T05:54:05;95829.28;;;2.61;62.10
55315;BME280;41619;42.816;23.226;2023-02-21T05:56:39;95818.00;;;2.81;61.64
55315;BME280;41619;42.816;23.226;2023-02-21T05:59:05;95822.13;;;3.01;61.51
55315;BME280;41619;42.816;23.226;2023-02-21T06:01:32;95830.03;;;3.20;61.32
55315;BME280;41619;42.816;23.226;2023-02-21T06:03:57;95841.75;;;3.38;60.98
55315;BME280;41619;42.816;23.226;2023-02-21T06:06:23;95831.81;;;3.55;60.61
55315;BME280;41619;42.816;23.226;2023-02-21T06:08:48;95823.16;;;3.76;60.41
55315;BME280;41619;42.816;23.226;2023-02-21T06:11:15;95824.66;;;3.99;60.00
55315;BME280;41619;42.816;23.226;2023-02-21T06:13:45;95822.16;;;4.20;60.30
55315;BME280;41619;42.816;23.226;2023-02-21T06:16:11;95828.09;;;4.39;59.58
55315;BME280;41619;42.816;23.226;2023-02-21T06:18:36;95816.31;;;4.61;59.50
55315;BME280;41619;42.816;23.226;2023-02-21T06:21:01;95814.13;;;4.89;59.38
55315;BME280;41619;42.816;23.226;2023-02-21T06:23:27;95814.88;;;5.15;59.05
55315;BME280;41619;42.816;23.226;2023-02-21T06:25:52;95820.88;;;5.38;58.70
55315;BME280;41619;42.816;23.226;2023-02-21T06:28:18;95817.94;;;5.69;58.38
55315;BME280;41619;42.816;23.226;2023-02-21T06:30:43;95814.66;;;6.02;58.25
55315;BME280;41619;42.816;23.226;2023-02-21T06:33:08;95824.88;;;6.34;57.88
55315;BME280;41619;42.816;23.226;2023-02-21T06:35:34;95827.34;;;6.69;57.49
55315;BME280;41619;42.816;23.226;2023-02-21T06:37:59;95831.06;;;7.06;57.04
55315;BME280;41619;42.816;23.226;2023-02-21T06:40:25;95829.28;;;7.43;56.92
55315;BME280;41619;42.816;23.226;2023-02-21T06:42:50;95827.22;;;7.73;56.34
55315;BME280;41619;42.816;23.226;2023-02-21T06:45:15;95818.53;;;8.04;55.68
55315;BME280;41619;42.816;23.226;2023-02-21T06:47:41;95828.19;;;8.26;55.44
55315;BME280;41619;42.816;23.226;2023-02-21T06:50:06;95831.41;;;8.40;54.98
55315;BME280;41619;42.816;23.226;2023-02-21T06:52:32;95825.09;;;8.64;55.19
55315;BME280;41619;42.816;23.226;2023-02-21T06:54:57;95828.34;;;8.94;54.78
55315;BME280;41619;42.816;23.226;2023-02-21T06:57:22;95821.63;;;9.32;54.83
55315;BME280;41619;42.816;23.226;2023-02-21T06:59:48;95827.78;;;9.73;54.48
55315;BME280;41619;42.816;23.226;2023-02-21T07:02:15;95826.06;;;10.12;54.54
55315;BME280;41619;42.816;23.226;2023-02-21T07:04:42;95819.63;;;10.51;54.66
55315;BME280;41619;42.816;23.226;2023-02-21T07:07:08;95824.47;;;10.93;55.03
55315;BME280;41619;42.816;23.226;2023-02-21T07:09:33;95825.63;;;11.50;56.32
55315;BME280;41619;42.816;23.226;2023-02-21T07:11:58;95816.78;;;13.01;56.00
55315;BME280;41619;42.816;23.226;2023-02-21T07:14:24;95822.78;;;15.86;50.28
55315;BME280;41619;42.816;23.226;2023-02-21T07:16:49;95802.81;;;18.50;44.11
55315;BME280;41619;42.816;23.226;2023-02-21T07:19:15;95806.56;;;20.44;39.94
55315;BME280;41619;42.816;23.226;2023-02-21T07:21:42;95794.78;;;22.09;37.08
55315;BME280;41619;42.816;23.226;2023-02-21T07:24:07;95795.69;;;23.65;34.60
55315;BME280;41619;42.816;23.226;2023-02-21T07:26:32;95785.28;;;24.84;32.58
55315;BME280;41619;42.816;23.226;2023-02-21T07:28:58;95778.84;;;25.78;31.44
55315;BME280;41619;42.816;23.226;2023-02-21T07:31:23;95773.28;;;26.40;30.46
55315;BME280;41619;42.816;23.226;2023-02-21T07:33:48;95769.94;;;26.63;29.30
55315;BME280;41619;42.816;23.226;2023-02-21T07:36:14;95756.38;;;26.00;29.06
55315;BME280;41619;42.816;23.226;2023-02-21T07:38:40;95766.97;;;24.32;29.79
55315;BME280;41619;42.816;23.226;2023-02-21T07:41:05;95765.41;;;23.76;29.89
55315;BME280;41619;42.816;23.226;2023-02-21T07:43:31;95761.72;;;24.59;28.89
55315;BME280;41619;42.816;23.226;2023-02-21T07:45:56;95754.00;;;26.20;27.04
55315;BME280;41619;42.816;23.226;2023-02-21T07:48:22;95744.66;;;27.67;25.19
55315;BME280;41619;42.816;23.226;2023-02-21T07:50:48;95748.91;;;28.32;23.81
55315;BME280;41619;42.816;23.226;2023-02-21T07:53:14;95752.56;;;28.81;23.45
55315;BME280;41619;42.816;23.226;2023-02-21T07:55:40;95740.72;;;29.48;22.57
55315;BME280;41619;42.816;23.226;2023-02-21T07:58:06;95733.97;;;30.29;21.39
55315;BME280;41619;42.816;23.226;2023-02-21T08:00:32;95741.09;;;31.24;20.52
55315;BME280;41619;42.816;23.226;2023-02-21T08:02:57;95742.31;;;31.63;20.00
55315;BME280;41619;42.816;23.226;2023-02-21T08:05:23;95731.00;;;32.41;19.25
55315;BME280;41619;42.816;23.226;2023-02-21T08:07:49;95738.22;;;33.17;18.79
55315;BME280;41619;42.816;23.226;2023-02-21T08:10:21;95736.22;;;32.86;18.66
55315;BME280;41619;42.816;23.226;2023-02-21T08:12:47;95733.84;;;33.21;18.15
55315;BME280;41619;42.816;23.226;2023-02-21T08:15:12;95730.41;;;33.60;18.04
55315;BME280;41619;42.816;23.226;2023-02-21T08:17:37;95735.94;;;34.02;17.17
55315;BME280;41619;42.816;23.226;2023-02-21T08:20:03;95732.38;;;34.36;16.84
55315;BME280;41619;42.816;23.226;2023-02-21T08:22:30;95732.34;;;34.75;16.54
55315;BME280;41619;42.816;23.226;2023-02-21T08:24:56;95727.41;;;35.14;16.33
55315;BME280;41619;42.816;23.226;2023-02-21T08:27:21;95728.63;;;35.36;15.74
55315;BME280;41619;42.816;23.226;2023-02-21T08:29:49;95726.09;;;35.15;15.68
55315;BME280;41619;42.816;23.226;2023-02-21T08:32:15;95730.50;;;35.05;15.49
55315;BME280;41619;42.816;23.226;2023-02-21T08:34:44;95728.19;;;35.04;15.08
55315;BME280;41619;42.816;23.226;2023-02-21T08:37:10;95721.00;;;34.36;15.10
55315;BME280;41619;42.816;23.226;2023-02-21T08:39:44;95720.75;;;32.81;16.12
55315;BME280;41619;42.816;23.226;2023-02-21T08:42:15;95712.47;;;31.62;16.19
55315;BME280;41619;42.816;23.226;2023-02-21T08:44:45;95711.78;;;31.07;16.35
55315;BME280;41619;42.816;23.226;2023-02-21T08:47:11;95712.69;;;30.78;16.59
55315;BME280;41619;42.816;23.226;2023-02-21T08:49:36;95697.69;;;30.71;16.30
55315;BME280;41619;42.816;23.226;2023-02-21T08:52:05;95701.72;;;30.85;16.16
55315;BME280;41619;42.816;23.226;2023-02-21T08:54:31;95698.28;;;31.37;15.91
55315;BME280;41619;42.816;23.226;2023-02-21T08:56:56;95694.41;;;32.38;15.09
55315;BME280;41619;42.816;23.226;2023-02-21T08:59:23;95707.38;;;33.35;14.83
55315;BME280;41619;42.816;23.226;2023-02-21T09:01:48;95704.97;;;33.93;14.22
55315;BME280;41619;42.816;23.226;2023-02-21T09:04:14;95697.50;;;34.29;13.78
55315;BME280;41619;42.816;23.226;2023-02-21T09:06:39;95688.41;;;34.87;13.33
55315;BME280;41619;42.816;23.226;2023-02-21T09:09:04;95689.84;;;35.21;13.31
55315;BME280;41619;42.816;23.226;2023-02-21T09:11:30;95689.13;;;35.15;12.92
55315;BME280;41619;42.816;23.226;2023-02-21T09:13:55;95685.69;;;35.34;12.22
55315;BME280;41619;42.816;23.226;2023-02-21T09:16:21;95682.53;;;34.51;12.83
55315;BME280;41619;42.816;23.226;2023-02-21T09:18:57;95676.41;;;32.41;13.46
55315;BME280;41619;42.816;23.226;2023-02-21T09:21:26;95676.66;;;30.23;14.87
55315;BME280;41619;42.816;23.226;2023-02-21T09:23:55;95681.59;;;28.44;15.68
55315;BME280;41619;42.816;23.226;2023-02-21T09:26:23;95679.19;;;26.75;16.68
55315;BME280;41619;42.816;23.226;2023-02-21T09:28:52;95670.97;;;25.39;17.57
55315;BME280;41619;42.816;23.226;2023-02-21T09:31:17;95678.38;;;24.41;17.75
55315;BME280;41619;42.816;23.226;2023-02-21T09:33:44;95664.28;;;23.69;18.50
55315;BME280;41619;42.816;23.226;2023-02-21T09:36:10;95666.59;;;23.16;19.22
55315;BME280;41619;42.816;23.226;2023-02-21T09:38:36;95670.25;;;22.67;19.42
55315;BME280;41619;42.816;23.226;2023-02-21T09:41:05;95656.00;;;22.00;19.71
55315;BME280;41619;42.816;23.226;2023-02-21T09:43:44;95657.06;;;21.54;20.17
55315;BME280;41619;42.816;23.226;2023-02-21T09:46:21;95654.22;;;21.18;20.20
55315;BME280;41619;42.816;23.226;2023-02-21T09:48:53;95656.31;;;20.94;20.48
55315;BME280;41619;42.816;23.226;2023-02-21T09:51:18;95649.88;;;20.77;20.70
55315;BME280;41619;42.816;23.226;2023-02-21T09:53:46;95650.56;;;20.62;20.93
55315;BME280;41619;42.816;23.226;2023-02-21T09:56:17;95646.72;;;20.55;21.66
55315;BME280;41619;42.816;23.226;2023-02-21T09:58:45;95648.84;;;20.48;21.46
55315;BME280;41619;42.816;23.226;2023-02-21T10:01:41;95645.94;;;20.55;22.18
55315;BME280;41619;42.816;23.226;2023-02-21T10:07:07;95625.00;;;22.76;22.09
55315;BME280;41619;42.816;23.226;2023-02-21T10:12:27;95624.28;;;27.99;18.73
55315;BME280;41619;42.816;23.226;2023-02-21T10:17:40;95608.78;;;31.33;16.59
55315;BME280;41619;42.816;23.226;2023-02-21T10:20:15;95612.72;;;32.31;15.81
55315;BME280;41619;42.816;23.226;2023-02-21T10:22:46;95603.84;;;32.97;15.30
55315;BME280;41619;42.816;23.226;2023-02-21T10:25:24;95602.38;;;33.30;14.67
55315;BME280;41619;42.816;23.226;2023-02-21T10:27:53;95599.66;;;32.87;14.11
55315;BME280;41619;42.816;23.226;2023-02-21T10:30:26;95594.59;;;31.54;14.12
55315;BME280;41619;42.816;23.226;2023-02-21T10:32:53;95592.66;;;29.53;15.53
55315;BME280;41619;42.816;23.226;2023-02-21T10:35:18;95581.38;;;27.80;16.43
55315;BME280;41619;42.816;23.226;2023-02-21T10:37:51;95585.09;;;26.25;17.48
55315;BME280;41619;42.816;23.226;2023-02-21T10:45:41;95577.16;;;23.96;19.51
55315;BME280;41619;42.816;23.226;2023-02-21T10:48:09;95583.59;;;24.31;19.83
55315;BME280;41619;42.816;23.226;2023-02-21T10:50:43;95575.59;;;25.82;19.46
55315;BME280;41619;42.816;23.226;2023-02-21T10:53:22;95562.91;;;27.88;18.23
55315;BME280;41619;42.816;23.226;2023-02-21T10:58:32;95541.59;;;31.23;16.25
55315;BME280;41619;42.816;23.226;2023-02-21T11:01:14;95544.13;;;32.15;15.17
55315;BME280;41619;42.816;23.226;2023-02-21T11:03:46;95537.03;;;32.91;14.58
55315;BME280;41619;42.816;23.226;2023-02-21T11:06:26;95530.41;;;33.27;14.36
55315;BME280;41619;42.816;23.226;2023-02-21T11:08:57;95528.94;;;33.71;13.87
55315;BME280;41619;42.816;23.226;2023-02-21T11:11:32;95516.78;;;33.98;13.65
55315;BME280;41619;42.816;23.226;2023-02-21T11:14:27;95510.34;;;33.98;13.65
55315;BME280;41619;42.816;23.226;2023-02-21T11:19:44;95501.59;;;32.52;13.13
55315;BME280;41619;42.816;23.226;2023-02-21T11:22:10;95503.22;;;31.42;13.00
55315;BME280;41619;42.816;23.226;2023-02-21T11:24:59;95504.19;;;30.61;13.47
55315;BME280;41619;42.816;23.226;2023-02-21T11:27:27;95498.47;;;29.80;13.58
55315;BME280;41619;42.816;23.226;2023-02-21T11:29:53;95495.50;;;28.65;13.85
55315;BME280;41619;42.816;23.226;2023-02-21T11:32:25;95483.78;;;27.38;15.04
55315;BME280;41619;42.816;23.226;2023-02-21T11:34:59;95476.97;;;26.42;15.75
55315;BME280;41619;42.816;23.226;2023-02-21T11:37:26;95478.19;;;25.64;15.78
55315;BME280;41619;42.816;23.226;2023-02-21T11:39:53;95475.06;;;24.91;16.50
55315;BME280;41619;42.816;23.226;2023-02-21T11:42:27;95469.94;;;24.37;17.03
55315;BME280;41619;42.816;23.226;2023-02-21T11:45:27;95457.53;;;24.03;17.15
55315;BME280;41619;42.816;23.226;2023-02-21T11:48:05;95460.06;;;23.76;17.54
55315;BME280;41619;42.816;23.226;2023-02-21T11:50:37;95448.78;;;23.54;17.26
55315;BME280;41619;42.816;23.226;2023-02-21T11:53:19;95447.47;;;23.33;17.14
55315;BME280;41619;42.816;23.226;2023-02-21T11:58:33;95433.66;;;22.91;17.76
55315;BME280;41619;42.816;23.226;2023-02-21T12:01:12;95433.94;;;22.81;17.97
55315;BME280;41619;42.816;23.226;2023-02-21T12:04:00;95425.66;;;22.64;18.33
55315;BME280;41619;42.816;23.226;2023-02-21T12:09:40;95411.94;;;22.57;17.50
55315;BME280;41619;42.816;23.226;2023-02-21T12:12:29;95405.13;;;22.46;17.53
55315;BME280;41619;42.816;23.226;2023-02-21T12:18:28;95390.81;;;22.31;17.05
55315;BME280;41619;42.816;23.226;2023-02-21T12:21:14;95388.25;;;22.24;17.01
55315;BME280;41619;42.816;23.226;2023-02-21T12:26:49;95377.59;;;21.77;17.38
55315;BME280;41619;42.816;23.226;2023-02-21T12:35:02;95373.41;;;21.24;17.76
55315;BME280;41619;42.816;23.226;2023-02-21T12:37:46;95367.94;;;21.20;17.75
55315;BME280;41619;42.816;23.226;2023-02-21T12:48:46;95361.25;;;21.01;18.21
55315;BME280;41619;42.816;23.226;2023-02-21T12:51:17;95350.28;;;21.10;18.56
55315;BME280;41619;42.816;23.226;2023-02-21T12:53:55;95354.88;;;21.17;18.48
55315;BME280;41619;42.816;23.226;2023-02-21T12:56:27;95349.06;;;21.28;18.58
55315;BME280;41619;42.816;23.226;2023-02-21T13:01:36;95346.50;;;21.50;18.50
55315;BME280;41619;42.816;23.226;2023-02-21T13:07:01;95339.28;;;21.52;18.54
55315;BME280;41619;42.816;23.226;2023-02-21T13:09:46;95342.66;;;21.60;18.52
55315;BME280;41619;42.816;23.226;2023-02-21T13:12:42;95338.13;;;21.66;18.57
55315;BME280;41619;42.816;23.226;2023-02-21T13:17:41;95332.94;;;21.81;18.73
55315;BME280;41619;42.816;23.226;2023-02-21T13:20:14;95328.03;;;21.85;18.63
55315;BME280;41619;42.816;23.226;2023-02-21T13:26:21;95337.41;;;21.91;18.53
55315;BME280;41619;42.816;23.226;2023-02-21T13:28:52;95323.91;;;21.89;18.65
55315;BME280;41619;42.816;23.226;2023-02-21T13:31:27;95335.41;;;21.91;18.81
55315;BME280;41619;42.816;23.226;2023-02-21T13:34:01;95325.03;;;21.92;18.80
55315;BME280;41619;42.816;23.226;2023-02-21T13:36:39;95325.94;;;21.89;18.72
55315;BME280;41619;42.816;23.226;2023-02-21T13:39:27;95325.13;;;21.88;18.97
55315;BME280;41619;42.816;23.226;2023-02-21T13:42:14;95318.69;;;21.91;19.09
55315;BME280;41619;42.816;23.226;2023-02-21T13:44:43;95318.22;;;21.93;18.99
55315;BME280;41619;42.816;23.226;2023-02-21T13:47:15;95323.47;;;21.91;18.75
55315;BME280;41619;42.816;23.226;2023-02-21T13:55:23;95307.31;;;21.86;19.00
55315;BME280;41619;42.816;23.226;2023-02-21T14:05:24;95302.81;;;23.41;17.73
55315;BME280;41619;42.816;23.226;2023-02-21T14:08:01;95296.94;;;24.04;17.33
55315;BME280;41619;42.816;23.226;2023-02-21T14:10:36;95293.47;;;24.53;16.81
55315;BME280;41619;42.816;23.226;2023-02-21T14:15:49;95290.66;;;24.93;16.67
55315;BME280;41619;42.816;23.226;2023-02-21T14:18:28;95291.66;;;24.68;16.79
55315;BME280;41619;42.816;23.226;2023-02-21T14:20:55;95299.50;;;24.42;17.44
55315;BME280;41619;42.816;23.226;2023-02-21T14:23:30;95298.81;;;24.07;17.32
55315;BME280;41619;42.816;23.226;2023-02-21T14:25:59;95302.47;;;23.73;17.69
55315;BME280;41619;42.816;23.226;2023-02-21T14:28:47;95292.31;;;23.45;17.87
55315;BME280;41619;42.816;23.226;2023-02-21T14:31:13;95297.31;;;23.15;17.78
55315;BME280;41619;42.816;23.226;2023-02-21T14:33:39;95296.81;;;22.44;18.13
55315;BME280;41619;42.816;23.226;2023-02-21T14:36:06;95291.88;;;21.68;18.89
55315;BME280;41619;42.816;23.226;2023-02-21T14:38:38;95295.94;;;21.06;19.14
55315;BME280;41619;42.816;23.226;2023-02-21T14:41:29;95283.81;;;20.51;20.02
55315;BME280;41619;42.816;23.226;2023-02-21T14:46:35;95292.56;;;19.77;20.49
55315;BME280;41619;42.816;23.226;2023-02-21T14:49:14;95294.25;;;19.51;20.69
55315;BME280;41619;42.816;23.226;2023-02-21T14:52:41;95288.41;;;19.26;20.80
55315;BME280;41619;42.816;23.226;2023-02-21T14:58:27;95292.84;;;18.76;21.20
55315;BME280;41619;42.816;23.226;2023-02-21T15:01:07;95289.53;;;18.62;21.12
55315;BME280;41619;42.816;23.226;2023-02-21T15:04:29;95287.75;;;18.48;21.49
55315;BME280;41619;42.816;23.226;2023-02-21T15:06:44;95293.56;;;18.30;21.59
55315;BME280;41619;42.816;23.226;2023-02-21T15:09:19;95292.22;;;18.15;21.65
55315;BME280;41619;42.816;23.226;2023-02-21T15:11:46;95288.44;;;18.02;21.82
55315;BME280;41619;42.816;23.226;2023-02-21T15:14:18;95288.25;;;17.89;21.99
55315;BME280;41619;42.816;23.226;2023-02-21T15:16:51;95287.22;;;17.76;22.04
55315;BME280;41619;42.816;23.226;2023-02-21T15:19:32;95278.28;;;17.61;22.11